createdAt,value
2023-01-05T00:00:32.606Z,7.87
2023-01-05T00:02:58.856Z,7.94
2023-01-05T00:05:25.177Z,7.88
2023-01-05T00:07:51.558Z,7.81
2023-01-05T00:10:17.880Z,7.83
2023-01-05T00:12:44.221Z,7.84
2023-01-05T00:15:10.692Z,7.83
2023-01-05T00:17:37.086Z,7.95
2023-01-05T00:20:03.440Z,8.02
2023-01-05T00:22:29.812Z,7.99
2023-01-05T00:24:56.159Z,8.00
2023-01-05T00:27:22.508Z,8.02
2023-01-05T00:29:48.823Z,8.06
2023-01-05T00:32:15.166Z,8.14
2023-01-05T00:34:41.523Z,8.25
2023-01-05T00:37:07.911Z,8.19
2023-01-05T00:39:34.277Z,8.22
2023-01-05T00:42:00.646Z,8.24
2023-01-05T00:44:27.010Z,8.23
2023-01-05T00:46:53.387Z,8.37
2023-01-05T00:49:19.737Z,8.50
2023-01-05T00:51:46.086Z,8.41
2023-01-05T00:54:12.466Z,8.27
2023-01-05T00:56:38.793Z,8.23
2023-01-05T00:59:05.127Z,8.11
2023-01-05T01:01:31.573Z,8.10
2023-01-05T01:03:57.846Z,8.21
2023-01-05T01:06:24.205Z,8.32
2023-01-05T01:08:50.620Z,8.55
2023-01-05T01:11:16.921Z,8.62
2023-01-05T01:13:43.283Z,8.52
2023-01-05T01:16:09.724Z,8.40
2023-01-05T01:18:36.057Z,8.37
2023-01-05T01:21:02.435Z,8.33
2023-01-05T01:23:28.757Z,8.60
2023-01-05T01:25:55.148Z,8.58
2023-01-05T01:28:21.476Z,8.67
2023-01-05T01:30:47.868Z,8.65
2023-01-05T01:33:14.203Z,8.58
2023-01-05T01:35:40.548Z,8.47
2023-01-05T01:38:06.938Z,8.34
2023-01-05T01:40:33.275Z,8.31
2023-01-05T01:42:59.628Z,8.25
2023-01-05T01:45:25.947Z,8.15
2023-01-05T01:47:52.334Z,8.17
2023-01-05T01:50:18.645Z,8.20
2023-01-05T01:52:45.019Z,8.16
2023-01-05T01:55:11.341Z,8.09
2023-01-05T01:57:37.691Z,8.07
2023-01-05T02:00:04.045Z,8.15
2023-01-05T02:02:30.569Z,8.17
2023-01-05T02:04:56.962Z,8.17
2023-01-05T02:07:23.196Z,8.05
2023-01-05T02:09:49.547Z,8.02
2023-01-05T02:12:15.925Z,8.04
2023-01-05T02:14:42.242Z,8.04
2023-01-05T02:17:08.626Z,7.88
2023-01-05T02:19:34.987Z,7.97
2023-01-05T02:22:01.417Z,8.02
2023-01-05T02:24:27.750Z,7.89
2023-01-05T02:26:54.096Z,7.91
2023-01-05T02:29:20.457Z,7.88
2023-01-05T02:31:46.863Z,7.75
2023-01-05T02:34:13.212Z,7.68
2023-01-05T02:36:39.598Z,7.64
2023-01-05T02:39:05.950Z,7.71
2023-01-05T02:41:32.284Z,7.82
2023-01-05T02:43:58.658Z,7.83
2023-01-05T02:46:25.117Z,7.93
2023-01-05T02:48:51.409Z,7.97
2023-01-05T02:51:17.780Z,8.02
2023-01-05T02:53:44.095Z,7.97
2023-01-05T02:56:10.500Z,7.93
2023-01-05T02:58:36.850Z,8.01
2023-01-05T03:01:03.254Z,8.05
2023-01-05T03:03:29.587Z,8.22
2023-01-05T03:05:55.930Z,8.03
2023-01-05T03:08:26.318Z,7.92
2023-01-05T03:10:48.605Z,7.73
2023-01-05T03:13:14.949Z,7.69
2023-01-05T03:15:41.323Z,7.69
2023-01-05T03:18:07.613Z,7.99
2023-01-05T03:20:33.957Z,8.06
2023-01-05T03:23:00.271Z,7.94
2023-01-05T03:25:26.654Z,7.94
2023-01-05T03:27:52.969Z,7.93
2023-01-05T03:30:19.325Z,7.85
2023-01-05T03:32:45.657Z,7.67
2023-01-05T03:35:12.005Z,7.63
2023-01-05T03:37:38.382Z,7.54
2023-01-05T03:40:04.697Z,7.46
2023-01-05T03:42:31.063Z,7.57
2023-01-05T03:44:57.407Z,7.57
2023-01-05T03:47:23.749Z,7.64
2023-01-05T03:49:50.120Z,7.73
2023-01-05T03:52:16.468Z,7.70
2023-01-05T03:54:42.887Z,7.65
2023-01-05T03:57:09.200Z,7.60
2023-01-05T03:59:35.584Z,7.62
2023-01-05T04:02:01.978Z,7.63
2023-01-05T04:04:28.288Z,7.70
2023-01-05T04:06:54.621Z,7.71
2023-01-05T04:09:20.967Z,7.67
2023-01-05T04:11:47.321Z,7.68
2023-01-05T04:14:13.650Z,7.73
2023-01-05T04:16:40.040Z,7.69
2023-01-05T04:19:06.371Z,7.57
2023-01-05T04:21:32.708Z,7.51
2023-01-05T04:23:59.070Z,7.42
2023-01-05T04:26:25.440Z,7.45
2023-01-05T04:28:51.817Z,7.64
2023-01-05T04:31:18.170Z,7.69
2023-01-05T04:33:44.502Z,7.60
2023-01-05T04:36:10.875Z,7.56
2023-01-05T04:38:37.232Z,7.54
2023-01-05T04:41:03.566Z,7.67
2023-01-05T04:43:30.012Z,7.68
2023-01-05T04:45:56.342Z,7.56
2023-01-05T04:48:22.687Z,7.62
2023-01-05T04:50:49.026Z,7.89
2023-01-05T04:53:15.427Z,7.86
2023-01-05T04:55:41.777Z,7.86
2023-01-05T04:58:11.816Z,7.85
2023-01-05T05:00:34.481Z,7.71
2023-01-05T05:03:00.915Z,7.77
2023-01-05T05:05:27.183Z,7.94
2023-01-05T05:07:53.516Z,7.94
2023-01-05T05:10:19.835Z,7.92
2023-01-05T05:12:46.217Z,7.99
2023-01-05T05:15:12.527Z,8.04
2023-01-05T05:17:38.861Z,8.06
2023-01-05T05:20:05.237Z,8.21
2023-01-05T05:22:31.560Z,8.22
2023-01-05T05:24:57.882Z,7.94
2023-01-05T05:27:24.316Z,7.79
2023-01-05T05:29:50.600Z,7.81
2023-01-05T05:32:16.959Z,7.59
2023-01-05T05:34:43.324Z,7.36
2023-01-05T05:37:09.696Z,7.19
2023-01-05T05:39:36.049Z,7.21
2023-01-05T05:42:02.415Z,7.33
2023-01-05T05:44:28.769Z,7.61
2023-01-05T05:46:55.181Z,7.85
2023-01-05T05:49:21.466Z,7.94
2023-01-05T05:51:47.863Z,7.84
2023-01-05T05:54:14.231Z,7.64
2023-01-05T05:56:40.605Z,7.67
2023-01-05T05:59:06.959Z,7.60
2023-01-05T06:01:33.454Z,7.56
2023-01-05T06:03:59.969Z,7.81
2023-01-05T06:06:26.356Z,7.87
2023-01-05T06:08:52.714Z,7.77
2023-01-05T06:11:19.169Z,7.72
2023-01-05T06:13:45.525Z,7.56
2023-01-05T06:16:11.934Z,7.43
2023-01-05T06:18:38.253Z,7.38
2023-01-05T06:21:04.643Z,7.42
2023-01-05T06:23:30.950Z,7.31
2023-01-05T06:25:57.308Z,7.49
2023-01-05T06:28:23.687Z,7.79
2023-01-05T06:30:50.026Z,7.92
2023-01-05T06:33:16.414Z,7.95
2023-01-05T06:35:42.810Z,8.05
2023-01-05T06:38:09.169Z,8.25
2023-01-05T06:40:35.552Z,8.50
2023-01-05T06:43:01.925Z,8.55
2023-01-05T06:45:28.312Z,8.58
2023-01-05T06:47:54.621Z,8.30
2023-01-05T06:50:21.004Z,8.22
2023-01-05T06:52:47.325Z,8.38
2023-01-05T06:55:13.686Z,8.15
2023-01-05T06:57:40.028Z,8.08
2023-01-05T07:00:06.372Z,8.13
2023-01-05T07:02:32.748Z,8.11
2023-01-05T07:04:59.140Z,8.04
2023-01-05T07:07:25.550Z,7.96
2023-01-05T07:09:51.885Z,7.98
2023-01-05T07:12:18.237Z,8.02
2023-01-05T07:14:44.595Z,7.84
2023-01-05T07:17:10.957Z,7.63
2023-01-05T07:19:37.335Z,7.61
2023-01-05T07:22:03.624Z,7.60
2023-01-05T07:24:30.021Z,7.80
2023-01-05T07:26:56.370Z,7.84
2023-01-05T07:29:22.764Z,7.77
2023-01-05T07:31:49.152Z,7.91
2023-01-05T07:34:15.446Z,7.90
2023-01-05T07:36:41.816Z,8.31
2023-01-05T07:39:08.161Z,8.88
2023-01-05T07:41:34.541Z,9.36
2023-01-05T07:44:00.854Z,9.54
2023-01-05T07:46:27.186Z,9.70
2023-01-05T07:48:53.578Z,9.84
2023-01-05T07:51:19.993Z,9.88
2023-01-05T07:53:46.315Z,9.55
2023-01-05T07:56:12.669Z,9.29
2023-01-05T07:58:38.995Z,9.07
2023-01-05T08:01:05.429Z,8.83
2023-01-05T08:03:31.666Z,9.08
2023-01-05T08:05:57.985Z,9.35
2023-01-05T08:08:24.811Z,9.14
2023-01-05T08:10:50.705Z,9.11
2023-01-05T08:13:17.083Z,9.18
2023-01-05T08:15:49.065Z,9.36
2023-01-05T08:18:09.756Z,9.46
2023-01-05T08:20:36.144Z,9.31
2023-01-05T08:23:02.533Z,9.18
2023-01-05T08:25:28.892Z,9.19
2023-01-05T08:27:55.288Z,9.15
2023-01-05T08:30:21.657Z,9.07
2023-01-05T08:32:48.047Z,9.08
2023-01-05T08:35:14.426Z,9.13
2023-01-05T08:37:40.791Z,9.21
2023-01-05T08:40:07.167Z,9.37
2023-01-05T08:42:33.539Z,10.05
2023-01-05T08:44:59.912Z,10.33
2023-01-05T08:47:28.504Z,10.50
2023-01-05T08:49:52.653Z,10.71
2023-01-05T08:52:19.036Z,10.80
2023-01-05T08:54:45.394Z,11.01
2023-01-05T08:57:11.761Z,11.61
2023-01-05T08:59:38.123Z,12.01
2023-01-05T09:02:04.613Z,12.40
2023-01-05T09:04:30.849Z,12.38
2023-01-05T09:06:57.263Z,12.47
2023-01-05T09:09:23.630Z,12.64
2023-01-05T09:11:50.008Z,13.16
2023-01-05T09:14:16.379Z,13.56
2023-01-05T09:17:06.020Z,13.68
2023-01-05T09:19:09.097Z,14.20
2023-01-05T09:21:35.435Z,14.43
2023-01-05T09:24:01.796Z,14.86
2023-01-05T09:26:28.141Z,14.94
2023-01-05T09:28:54.472Z,15.13
2023-01-05T09:31:20.946Z,15.33
2023-01-05T09:33:47.238Z,15.12
2023-01-05T09:36:13.570Z,15.48
2023-01-05T09:38:46.685Z,15.09
2023-01-05T09:41:06.277Z,15.19
2023-01-05T09:43:32.601Z,15.39
2023-01-05T09:45:58.985Z,15.33
2023-01-05T09:48:25.401Z,15.14
2023-01-05T09:50:51.676Z,15.11
2023-01-05T09:53:18.004Z,15.84
2023-01-05T09:55:44.355Z,16.20
2023-01-05T09:58:10.734Z,15.90
2023-01-05T10:00:37.078Z,15.88
2023-01-05T10:03:03.426Z,15.82
2023-01-05T10:05:29.841Z,16.04
2023-01-05T10:07:56.105Z,15.96
2023-01-05T10:10:28.099Z,16.02
2023-01-05T10:12:48.823Z,15.77
2023-01-05T10:15:15.178Z,16.00
2023-01-05T10:17:43.241Z,16.24
2023-01-05T10:20:07.894Z,16.13
2023-01-05T10:22:38.595Z,15.73
2023-01-05T10:25:00.613Z,15.66
2023-01-05T10:27:27.157Z,15.56
2023-01-05T10:29:53.301Z,15.59
2023-01-05T10:32:19.633Z,15.70
2023-01-05T10:34:46.020Z,15.66
2023-01-05T10:37:12.372Z,15.60
2023-01-05T10:39:38.752Z,15.69
2023-01-05T10:42:05.103Z,16.07
2023-01-05T10:44:31.461Z,16.58
2023-01-05T10:46:57.890Z,16.82
2023-01-05T10:49:24.208Z,16.70
2023-01-05T10:51:56.299Z,16.51
2023-01-05T10:54:16.926Z,16.36
2023-01-05T10:56:43.286Z,16.64
2023-01-05T10:59:09.686Z,16.71
2023-01-05T11:01:36.078Z,16.76
2023-01-05T11:06:28.722Z,17.41
2023-01-05T11:08:55.091Z,17.50
2023-01-05T11:11:21.498Z,17.64
2023-01-05T11:13:47.813Z,17.64
2023-01-05T11:16:14.193Z,17.51
2023-01-05T11:18:40.526Z,17.23
2023-01-05T11:21:06.858Z,16.58
2023-01-05T11:23:33.195Z,16.61
2023-01-05T11:25:59.542Z,17.00
2023-01-05T11:28:25.925Z,17.06
2023-01-05T11:30:52.347Z,16.64
2023-01-05T11:33:24.904Z,17.02
2023-01-05T11:35:44.954Z,17.25
2023-01-05T11:38:11.318Z,17.24
2023-01-05T11:40:37.684Z,17.49
2023-01-05T11:43:04.035Z,17.52
2023-01-05T11:45:30.403Z,17.68
2023-01-05T11:47:56.765Z,17.43
2023-01-05T11:50:23.173Z,17.28
2023-01-05T11:52:49.484Z,17.42
2023-01-05T11:55:15.903Z,17.53
2023-01-05T11:57:42.261Z,17.89
2023-01-05T12:00:08.682Z,17.95
2023-01-05T12:02:35.031Z,17.99
2023-01-05T12:05:01.436Z,18.09
2023-01-05T12:07:27.751Z,18.16
2023-01-05T12:09:54.095Z,17.63
2023-01-05T12:12:20.459Z,17.18
2023-01-05T12:14:46.925Z,17.02
2023-01-05T12:17:13.262Z,16.77
2023-01-05T12:19:39.635Z,16.56
2023-01-05T12:22:06.026Z,16.81
2023-01-05T12:24:32.462Z,16.45
2023-01-05T12:26:58.837Z,15.78
2023-01-05T12:34:17.918Z,15.15
2023-01-05T12:36:44.247Z,15.31
2023-01-05T12:39:10.697Z,15.31
2023-01-05T12:41:37.022Z,15.06
2023-01-05T12:44:03.385Z,15.03
2023-01-05T12:46:29.754Z,15.18
2023-01-05T12:48:56.109Z,15.16
2023-01-05T12:51:22.448Z,15.42
2023-01-05T12:53:48.808Z,15.83
2023-01-05T12:56:15.167Z,16.12
2023-01-05T12:58:41.510Z,15.95
2023-01-05T13:01:07.980Z,15.93
2023-01-05T13:03:34.251Z,16.22
2023-01-05T13:06:00.609Z,16.60
2023-01-05T13:08:26.958Z,16.54
2023-01-05T13:10:53.282Z,16.81
2023-01-05T13:13:19.680Z,17.00
2023-01-05T13:15:46.038Z,17.02
2023-01-05T13:18:12.394Z,16.99
2023-01-05T13:20:38.736Z,17.28
2023-01-05T13:23:05.083Z,17.13
2023-01-05T13:25:31.450Z,17.02
2023-01-05T13:27:57.797Z,17.01
2023-01-05T13:30:24.157Z,16.82
2023-01-05T13:32:50.497Z,16.80
2023-01-05T13:35:16.868Z,16.40
2023-01-05T13:37:43.247Z,16.01
2023-01-05T13:40:09.564Z,15.85
2023-01-05T13:42:35.974Z,16.04
2023-01-05T13:45:02.289Z,16.33
2023-01-05T13:47:28.735Z,16.43
2023-01-05T13:49:55.017Z,16.69
2023-01-05T13:52:21.368Z,16.72
2023-01-05T13:55:01.056Z,16.40
2023-01-05T13:57:14.070Z,15.97
2023-01-05T13:59:49.137Z,15.59
2023-01-05T14:02:06.807Z,15.29
2023-01-05T14:04:33.375Z,15.18
2023-01-05T14:06:59.523Z,14.99
2023-01-05T14:09:25.922Z,14.81
2023-01-05T14:11:52.301Z,14.68
2023-01-05T14:14:18.626Z,14.65
2023-01-05T14:16:45.037Z,14.60
2023-01-05T14:19:11.372Z,14.47
2023-01-05T14:21:37.754Z,14.30
2023-01-05T14:24:04.079Z,14.24
2023-01-05T14:26:30.425Z,14.19
2023-01-05T14:28:56.751Z,14.10
2023-01-05T14:31:23.164Z,13.82
2023-01-05T14:33:49.468Z,13.74
2023-01-05T14:36:15.878Z,13.65
2023-01-05T14:38:42.243Z,13.49
2023-01-05T14:41:08.601Z,13.37
2023-01-05T14:43:34.948Z,13.27
2023-01-05T14:46:01.382Z,13.22
2023-01-05T14:48:27.663Z,13.09
2023-01-05T14:50:54.003Z,12.99
2023-01-05T14:53:20.449Z,12.79
2023-01-05T14:55:46.707Z,12.73
2023-01-05T14:58:13.079Z,12.66
2023-01-05T15:00:39.425Z,12.61
2023-01-05T15:03:05.797Z,12.56
2023-01-05T15:05:32.193Z,12.48
2023-01-05T15:10:24.868Z,12.40
2023-01-05T15:12:52.922Z,12.30
2023-01-05T15:15:17.579Z,12.27
2023-01-05T15:17:43.975Z,12.24
2023-01-05T15:20:10.327Z,12.22
2023-01-05T15:22:38.421Z,12.21
2023-01-05T15:25:03.164Z,12.20
2023-01-05T15:27:29.478Z,12.25
2023-01-05T15:29:55.815Z,12.47
2023-01-05T15:32:22.204Z,12.37
2023-01-05T15:34:48.544Z,12.22
2023-01-05T15:37:14.910Z,12.08
2023-01-05T15:39:41.355Z,11.94
2023-01-05T15:42:07.637Z,11.84
2023-01-05T15:44:33.986Z,11.70
2023-01-05T15:47:00.340Z,11.67
2023-01-05T15:49:26.679Z,11.62
2023-01-05T15:51:53.008Z,11.62
2023-01-05T15:54:19.393Z,11.57
2023-01-05T15:56:45.741Z,11.53
2023-01-05T15:59:12.085Z,11.50
2023-01-05T16:01:38.455Z,11.46
2023-01-05T16:04:04.834Z,11.41
2023-01-05T16:06:31.159Z,11.38
2023-01-05T16:08:57.564Z,11.35
2023-01-05T16:11:23.888Z,11.29
2023-01-05T16:13:50.229Z,11.29
2023-01-05T16:16:43.186Z,11.30
2023-01-05T16:18:42.935Z,11.22
2023-01-05T16:21:09.304Z,11.14
2023-01-05T16:23:35.653Z,11.06
2023-01-05T16:26:01.978Z,11.05
2023-01-05T16:28:28.359Z,11.01
2023-01-05T16:30:54.754Z,11.02
2023-01-05T16:33:21.052Z,11.00
2023-01-05T16:35:47.375Z,10.90
2023-01-05T16:38:13.756Z,10.82
2023-01-05T16:40:40.172Z,10.80
2023-01-05T16:43:06.484Z,10.70
2023-01-05T16:45:32.799Z,10.60
2023-01-05T16:47:59.191Z,10.52
2023-01-05T16:50:25.488Z,10.47
2023-01-05T16:52:51.880Z,10.41
2023-01-05T16:55:23.721Z,10.32
2023-01-05T16:57:44.666Z,10.23
2023-01-05T17:00:10.979Z,10.13
2023-01-05T17:02:37.324Z,10.07
2023-01-05T17:05:03.680Z,10.03
2023-01-05T17:07:30.060Z,9.97
2023-01-05T17:09:56.466Z,9.97
2023-01-05T17:12:22.791Z,9.97
2023-01-05T17:14:49.091Z,9.92
2023-01-05T17:17:15.470Z,9.87
2023-01-05T17:19:41.788Z,9.87
2023-01-05T17:22:10.354Z,9.82
2023-01-05T17:24:34.507Z,9.74
2023-01-05T17:27:00.851Z,9.65
2023-01-05T17:29:27.174Z,9.69
2023-01-05T17:31:53.568Z,9.61
2023-01-05T17:34:19.935Z,9.60
2023-01-05T17:36:46.324Z,9.67
2023-01-05T17:39:12.643Z,9.72
2023-01-05T17:41:39.020Z,9.73
2023-01-05T17:44:05.372Z,9.74
2023-01-05T17:46:31.711Z,9.75
2023-01-05T17:48:58.046Z,9.76
2023-01-05T17:51:24.385Z,9.77
2023-01-05T17:53:50.721Z,9.75
2023-01-05T17:56:18.668Z,9.68
2023-01-05T17:58:43.428Z,9.64
2023-01-05T18:01:09.818Z,9.68
2023-01-05T18:03:36.126Z,9.61
2023-01-05T18:06:02.511Z,9.59
2023-01-05T18:08:28.877Z,9.60
2023-01-05T18:10:55.219Z,9.56
2023-01-05T18:13:22.852Z,9.47
2023-01-05T18:15:47.886Z,9.33
2023-01-05T18:18:14.220Z,9.26
2023-01-05T18:20:40.598Z,9.20
2023-01-05T18:25:33.303Z,8.85
2023-01-05T18:27:59.670Z,8.67
2023-01-05T18:30:26.016Z,8.55
2023-01-05T18:32:52.346Z,8.44
2023-01-05T18:35:18.729Z,8.51
2023-01-05T18:37:45.062Z,8.58
2023-01-05T18:40:11.523Z,8.60
2023-01-05T18:42:37.810Z,8.55
2023-01-05T18:45:13.850Z,8.43
2023-01-05T18:47:30.511Z,8.26
2023-01-05T18:49:56.870Z,8.16
2023-01-05T18:52:23.204Z,8.04
2023-01-05T18:54:49.538Z,7.97
2023-01-05T18:57:15.925Z,7.84
2023-01-05T18:59:42.317Z,7.74
2023-01-05T19:02:08.671Z,7.66
2023-01-05T19:04:35.088Z,7.63
2023-01-05T19:07:01.334Z,7.71
2023-01-05T19:09:27.703Z,7.71
2023-01-05T19:11:54.055Z,7.69
2023-01-05T19:14:20.430Z,7.73
2023-01-05T19:16:46.796Z,7.79
2023-01-05T19:19:13.165Z,7.62
2023-01-05T19:21:39.493Z,7.52
2023-01-05T19:24:05.882Z,7.34
2023-01-05T19:26:32.192Z,7.33
2023-01-05T19:28:58.619Z,7.33
2023-01-05T19:31:25.055Z,7.38
2023-01-05T19:33:51.404Z,7.41
2023-01-05T19:36:17.767Z,7.35
2023-01-05T19:38:44.128Z,7.38
2023-01-05T19:41:10.454Z,7.46
2023-01-05T19:43:36.863Z,7.51
2023-01-05T19:46:03.288Z,7.48
2023-01-05T19:48:29.573Z,7.58
2023-01-05T19:50:55.953Z,7.62
2023-01-05T19:53:22.359Z,7.70
2023-01-05T19:55:48.720Z,7.77
2023-01-05T19:58:15.106Z,7.92
2023-01-05T20:00:41.410Z,8.02
2023-01-05T20:03:07.866Z,8.03
2023-01-05T20:05:34.207Z,7.92
2023-01-05T20:08:00.589Z,7.68
2023-01-05T20:10:26.995Z,7.34
2023-01-05T20:12:53.283Z,7.16
2023-01-05T20:15:19.625Z,7.05
2023-01-05T20:17:46.018Z,6.87
2023-01-05T20:20:12.405Z,6.81
2023-01-05T20:22:38.805Z,6.77
2023-01-05T20:25:05.177Z,6.69
2023-01-05T20:27:31.559Z,6.82
2023-01-05T20:29:57.923Z,6.76
2023-01-05T20:32:24.280Z,6.81
2023-01-05T20:34:50.646Z,6.82
2023-01-05T20:37:17.034Z,6.72
2023-01-05T20:39:43.386Z,6.73
2023-01-05T20:42:09.764Z,6.60
2023-01-05T20:44:36.142Z,6.57
2023-01-05T20:47:02.505Z,6.67
2023-01-05T20:49:28.829Z,6.56
2023-01-05T20:51:55.218Z,6.46
2023-01-05T20:54:21.644Z,6.47
2023-01-05T20:56:47.987Z,6.54
2023-01-05T20:59:14.330Z,6.57
2023-01-05T21:01:40.864Z,6.55
2023-01-05T21:04:07.063Z,6.53
2023-01-05T21:06:33.419Z,6.56
2023-01-05T21:08:59.744Z,6.42
2023-01-05T21:11:26.205Z,6.37
2023-01-05T21:13:52.482Z,6.38
2023-01-05T21:16:19.008Z,6.48
2023-01-05T21:18:45.218Z,6.53
2023-01-05T21:21:11.564Z,6.45
2023-01-05T21:23:37.947Z,6.44
2023-01-05T21:26:06.196Z,6.40
2023-01-05T21:28:30.690Z,6.29
2023-01-05T21:30:57.067Z,6.32
2023-01-05T21:33:23.465Z,6.33
2023-01-05T21:35:49.855Z,6.24
2023-01-05T21:38:16.168Z,6.27
2023-01-05T21:40:42.561Z,6.30
2023-01-05T21:43:08.912Z,6.38
2023-01-05T21:45:35.319Z,6.36
2023-01-05T21:48:01.655Z,6.35
2023-01-05T21:50:28.027Z,6.36
2023-01-05T21:52:54.320Z,6.25
2023-01-05T21:55:20.664Z,6.05
2023-01-05T21:57:46.996Z,6.10
2023-01-05T22:00:13.410Z,6.10
2023-01-05T22:02:39.756Z,6.09
2023-01-05T22:05:06.096Z,6.21
2023-01-05T22:07:32.515Z,6.28
2023-01-05T22:09:58.992Z,6.39
2023-01-05T22:12:25.352Z,6.41
2023-01-05T22:14:51.689Z,6.45
2023-01-05T22:17:18.062Z,6.48
2023-01-05T22:19:44.481Z,6.50
2023-01-05T22:22:10.857Z,6.38
2023-01-05T22:24:37.240Z,5.98
2023-01-05T22:27:03.574Z,5.73
2023-01-05T22:29:30.009Z,5.74
2023-01-05T22:31:56.422Z,5.71
2023-01-05T22:34:22.684Z,5.65
2023-01-05T22:36:49.072Z,5.60
2023-01-05T22:39:15.485Z,5.61
2023-01-05T22:41:41.867Z,5.77
2023-01-05T22:44:08.186Z,5.95
2023-01-05T22:46:34.573Z,6.03
2023-01-05T22:49:00.896Z,6.15
2023-01-05T22:51:27.285Z,6.14
2023-01-05T22:53:53.655Z,6.27
2023-01-05T22:56:20.010Z,6.41
2023-01-05T22:58:46.343Z,6.37
2023-01-05T23:01:12.786Z,6.34
2023-01-05T23:03:39.049Z,6.33
2023-01-05T23:06:05.407Z,6.44
2023-01-05T23:08:31.738Z,6.51
2023-01-05T23:10:58.091Z,6.62
2023-01-05T23:13:24.450Z,6.69
2023-01-05T23:15:50.795Z,6.86
2023-01-05T23:18:17.140Z,6.97
2023-01-05T23:20:43.565Z,7.05
2023-01-05T23:23:09.881Z,6.98
2023-01-05T23:25:36.277Z,7.03
2023-01-05T23:28:02.593Z,7.13
2023-01-05T23:30:29.007Z,7.16
2023-01-05T23:32:55.311Z,7.24
2023-01-05T23:35:21.740Z,7.41
2023-01-05T23:37:48.020Z,7.51
2023-01-05T23:40:14.444Z,7.65
2023-01-05T23:42:40.769Z,7.78
2023-01-05T23:45:07.145Z,7.83
2023-01-05T23:47:33.457Z,7.82
2023-01-05T23:49:59.817Z,7.84
2023-01-05T23:52:26.213Z,7.89
2023-01-05T23:54:52.621Z,7.93
2023-01-05T23:57:18.949Z,7.93
2023-01-05T23:59:45.360Z,8.03
